Tropical Cyclones
[Index]
Main Index Home Page Stock Weather Photos Extreme Storms Discussion Storm News and Storm Chasing Reports Tropical Cyclones / Hurricanes / Typhoons Weather Data and Links Wild Fires / Bushfires Weather Observation Techniques Weather Picture Catalogue Tornado Pictures and Reports Stock Video Footage and DVDs for sale
Season 1984-1985 Tropical Cyclone NIGEL Track Map
Season 1984-1985 Summaries: [BoM-AU] [JTWC-AU] [JTWC-SIO] [JTWC-SPAC] [JTWC-SH]
<<- Previous TC | JTWC 1984-1985 Season | Next TC ->>

click for intensity scale information  Lat/long Grid: Show Hide

 Date Labels: Show Hide

Joint Typhoon Warning Centre Cyclone Data

Name: NIGEL

14 Jan 1985 00:00 UTC to 21 Jan 1985 00:00 UTC

    date/time    lat    long     hPa   cat  kts
1985-01-14 00   16.3   150.9                  25          
1985-01-14 06   16.3   151.4                  25          
1985-01-14 12   16.4   151.9                  25          
1985-01-14 18   16.4   152.4                  25          
1985-01-15 00   16.5   152.9                  25          
1985-01-15 06   16.4   153.7                  25          
1985-01-15 12   16.2   154.5                  30          
1985-01-15 18   16.1   155.3                  30          
1985-01-16 00   16.0   156.1                  35          
1985-01-16 06   16.0   157.3            1     40          
1985-01-16 12   15.9   158.7            1     50          
1985-01-16 18   15.8   160.1            2     55          
1985-01-17 00   15.7   161.5            2     65          
1985-01-17 06   15.6   163.0            2     70          
1985-01-17 12   15.5   164.6            3     75          
1985-01-17 18   15.5   166.2            3     75          
1985-01-18 00   15.5   167.9            3     80          
1985-01-18 06   15.6   169.5            3     85          
1985-01-18 12   15.8   171.2            3     90          
1985-01-18 18   16.2   173.1            4    100          
1985-01-19 00   16.7   175.3            4    105          
1985-01-19 06   17.3   177.7            4    100          
1985-01-19 12   18.0   179.9W           3     85          
1985-01-19 18   18.7   177.5W           2     70          
1985-01-20 00   19.4   175.1W           2     60          
1985-01-20 06   19.9   172.8W           1     50          
1985-01-20 12   20.2   170.8W           1     40          
1985-01-20 18   20.5   169.1W                 35          
1985-01-21 00   20.8   167.7W                 30          
Winds are 1-min average.

Tropical cyclone tracks developed by Michael Bath using data from the Joint Typhoon Warning Centre Best Tracks and Google Maps.


[Australian Severe Weather index] [Copyright Notice] [Email Contacts] [Search This Site] [Privacy Policy]
Document: tropical_cyclone_nigel.htm Updated: 18 September 2016